createdAt,value
2022-08-03T00:02:52.248Z,101462.19
2022-08-03T00:06:03.903Z,101468.28
2022-08-03T00:09:12.595Z,101467.84
2022-08-03T00:12:18.286Z,101470.72
2022-08-03T00:15:24.021Z,101464.38
2022-08-03T00:18:31.102Z,101458.75
2022-08-03T00:21:35.993Z,101467.69
2022-08-03T00:24:42.645Z,101467.34
2022-08-03T00:27:48.326Z,101465.28
2022-08-03T00:30:53.418Z,101461.59
2022-08-03T00:34:03.168Z,101454.28
2022-08-03T00:37:08.677Z,101459.53
2022-08-03T00:40:16.960Z,101457.25
2022-08-03T00:43:26.726Z,101459.66
2022-08-03T00:46:31.887Z,101458.44
2022-08-03T00:49:37.759Z,101462.03
2022-08-03T00:52:43.272Z,101454.00
2022-08-03T00:55:50.276Z,101451.69
2022-08-03T00:58:57.931Z,101451.69
2022-08-03T01:02:02.915Z,101455.50
2022-08-03T01:05:08.700Z,101453.94
2022-08-03T01:08:24.170Z,101455.84
2022-08-03T01:11:59.973Z,101454.78
2022-08-03T01:15:14.163Z,101457.59
2022-08-03T01:18:23.365Z,101449.06
2022-08-03T01:21:32.839Z,101451.28
2022-08-03T01:24:49.595Z,101447.25
2022-08-03T01:28:05.977Z,101455.31
2022-08-03T01:31:18.113Z,101451.31
2022-08-03T01:34:25.832Z,101447.38
2022-08-03T01:37:36.308Z,101453.84
2022-08-03T01:40:46.998Z,101452.03
2022-08-03T01:44:30.209Z,101455.84
2022-08-03T01:47:23.468Z,101445.81
2022-08-03T01:50:31.887Z,101446.19
2022-08-03T01:53:38.051Z,101443.81
2022-08-03T01:56:49.040Z,101439.28
2022-08-03T01:59:58.175Z,101434.63
2022-08-03T02:03:06.817Z,101443.09
2022-08-03T02:06:58.930Z,101440.56
2022-08-03T02:09:40.972Z,101445.84
2022-08-03T02:12:51.084Z,101433.88
2022-08-03T02:15:57.980Z,101442.34
2022-08-03T02:19:07.436Z,101433.50
2022-08-03T02:22:14.953Z,101436.72
2022-08-03T02:25:20.651Z,101435.03
2022-08-03T02:28:36.024Z,101438.25
2022-08-03T02:31:44.627Z,101434.03
2022-08-03T02:34:54.117Z,101435.19
2022-08-03T02:38:03.231Z,101427.56
2022-08-03T02:41:14.706Z,101418.88
2022-08-03T02:44:28.551Z,101418.72
2022-08-03T02:47:53.986Z,101417.09
2022-08-03T02:51:03.895Z,101416.28
2022-08-03T02:54:10.590Z,101408.56
2022-08-03T02:57:16.977Z,101405.84
2022-08-03T03:00:28.064Z,101410.34
2022-08-03T03:03:38.605Z,101413.25
2022-08-03T03:06:53.499Z,101407.59
2022-08-03T03:10:02.775Z,101408.66
2022-08-03T03:13:09.587Z,101401.38
2022-08-03T03:16:16.442Z,101404.78
2022-08-03T03:19:22.728Z,101408.91
2022-08-03T03:22:32.028Z,101403.06
2022-08-03T03:25:37.714Z,101399.31
2022-08-03T03:28:44.910Z,101403.19
2022-08-03T03:31:50.726Z,101400.22
2022-08-03T03:34:59.197Z,101407.00
2022-08-03T03:38:05.982Z,101409.59
2022-08-03T03:41:11.511Z,101411.72
2022-08-03T03:44:17.253Z,101403.94
2022-08-03T03:47:32.119Z,101409.06
2022-08-03T03:50:40.847Z,101407.03
2022-08-03T03:53:58.059Z,101407.03
2022-08-03T03:57:04.730Z,101406.00
2022-08-03T04:00:11.150Z,101408.53
2022-08-03T04:03:16.595Z,101409.81
2022-08-03T04:06:39.167Z,101403.03
2022-08-03T04:10:08.936Z,101408.13
2022-08-03T04:13:23.020Z,101408.75
2022-08-03T04:16:32.380Z,101413.56
2022-08-03T04:19:41.242Z,101402.22
2022-08-03T04:22:49.043Z,101412.94
2022-08-03T04:25:58.766Z,101411.41
2022-08-03T04:29:06.209Z,101416.69
2022-08-03T04:32:13.237Z,101419.44
2022-08-03T04:35:19.727Z,101414.00
2022-08-03T04:38:26.593Z,101415.41
2022-08-03T04:41:33.449Z,101419.44
2022-08-03T04:45:01.647Z,101418.59
2022-08-03T04:48:07.203Z,101422.41
2022-08-03T04:51:13.263Z,101418.75
2022-08-03T04:54:18.598Z,101421.44
2022-08-03T04:57:25.631Z,101422.19
2022-08-03T05:00:31.516Z,101426.59
2022-08-03T05:03:36.771Z,101425.53
2022-08-03T05:06:48.015Z,101431.78
2022-08-03T05:10:01.339Z,101428.22
2022-08-03T05:13:11.999Z,101432.16
2022-08-03T05:16:17.279Z,101433.78
2022-08-03T05:19:22.188Z,101434.53
2022-08-03T05:22:27.357Z,101440.69
2022-08-03T05:25:32.549Z,101444.13
2022-08-03T05:28:39.477Z,101436.63
2022-08-03T05:31:56.814Z,101433.91
2022-08-03T05:36:00.903Z,101437.19
2022-08-03T05:38:28.748Z,101434.63
2022-08-03T05:41:40.316Z,101442.25
2022-08-03T05:44:47.061Z,101439.41
2022-08-03T05:47:52.634Z,101435.38
2022-08-03T05:50:58.163Z,101441.00
2022-08-03T05:54:02.939Z,101439.44
2022-08-03T05:57:08.510Z,101432.75
2022-08-03T06:00:16.036Z,101428.53
2022-08-03T06:03:21.942Z,101429.44
2022-08-03T06:06:32.101Z,101430.13
2022-08-03T06:10:35.711Z,101430.47
2022-08-03T06:13:02.915Z,101432.44
2022-08-03T06:16:09.416Z,101435.84
2022-08-03T06:19:14.681Z,101429.97
2022-08-03T06:22:19.747Z,101437.03
2022-08-03T06:25:26.920Z,101440.16
2022-08-03T06:28:51.453Z,101434.50
2022-08-03T06:31:59.198Z,101439.47
2022-08-03T06:35:05.324Z,101442.97
2022-08-03T06:38:10.342Z,101430.78
2022-08-03T06:41:16.147Z,101432.56
2022-08-03T06:44:21.468Z,101435.44
2022-08-03T06:47:28.332Z,101444.75
2022-08-03T06:50:34.279Z,101434.47
2022-08-03T06:53:39.959Z,101443.47
2022-08-03T06:56:44.873Z,101437.81
2022-08-03T07:00:09.847Z,101431.06
2022-08-03T07:03:17.241Z,101428.88
2022-08-03T07:06:22.329Z,101451.03
2022-08-03T07:09:28.094Z,101441.31
2022-08-03T07:12:33.850Z,101446.59
2022-08-03T07:15:55.684Z,101450.88
2022-08-03T07:19:02.615Z,101461.44
2022-08-03T07:22:08.778Z,101456.41
2022-08-03T07:25:14.345Z,101468.59
2022-08-03T07:28:19.765Z,101463.63
2022-08-03T07:31:25.166Z,101460.84
2022-08-03T07:34:32.324Z,101459.75
2022-08-03T07:37:37.950Z,101473.81
2022-08-03T07:40:46.176Z,101467.00
2022-08-03T07:43:51.917Z,101467.66
2022-08-03T07:46:57.918Z,101457.53
2022-08-03T07:50:08.545Z,101461.88
2022-08-03T07:53:13.884Z,101462.09
2022-08-03T07:56:19.656Z,101460.06
2022-08-03T07:59:25.223Z,101453.13
2022-08-03T08:02:30.464Z,101455.41
2022-08-03T08:05:37.253Z,101455.56
2022-08-03T08:08:43.124Z,101449.84
2022-08-03T08:11:47.819Z,101456.56
2022-08-03T08:14:52.853Z,101455.25
2022-08-03T08:18:00.112Z,101458.75
2022-08-03T08:21:06.807Z,101458.88
2022-08-03T08:24:18.088Z,101456.09
2022-08-03T08:27:23.589Z,101461.63
2022-08-03T08:30:29.319Z,101459.66
2022-08-03T08:34:02.485Z,101462.44
2022-08-03T08:37:03.857Z,101473.22
2022-08-03T08:40:10.410Z,101467.19
2022-08-03T08:43:15.726Z,101471.03
2022-08-03T08:46:22.786Z,101472.06
2022-08-03T08:49:30.338Z,101460.53
2022-08-03T08:52:37.657Z,101464.59
2022-08-03T08:55:58.789Z,101468.22
2022-08-03T08:59:05.975Z,101468.00
2022-08-03T09:02:11.369Z,101468.63
2022-08-03T09:05:18.602Z,101469.63
2022-08-03T09:08:25.312Z,101466.25
2022-08-03T09:11:51.629Z,101472.84
2022-08-03T09:15:15.907Z,101470.13
2022-08-03T09:18:32.827Z,101470.78
2022-08-03T09:21:38.392Z,101469.72
2022-08-03T09:25:22.933Z,101465.72
2022-08-03T09:29:00.060Z,101460.22
2022-08-03T09:31:49.123Z,101469.50
2022-08-03T09:34:58.141Z,101463.50
2022-08-03T09:38:14.657Z,101457.47
2022-08-03T09:41:21.454Z,101464.41
2022-08-03T09:44:35.269Z,101460.63
2022-08-03T09:47:45.011Z,101456.09
2022-08-03T09:50:58.749Z,101465.59
2022-08-03T09:54:27.662Z,101456.16
2022-08-03T09:57:34.573Z,101460.47
2022-08-03T10:00:54.881Z,101461.47
2022-08-03T10:04:04.111Z,101466.84
2022-08-03T10:07:11.282Z,101462.28
2022-08-03T10:10:28.817Z,101461.69
2022-08-03T10:13:39.206Z,101466.72
2022-08-03T10:16:50.051Z,101466.81
2022-08-03T10:19:57.323Z,101458.59
2022-08-03T10:23:03.811Z,101464.63
2022-08-03T10:26:14.073Z,101459.50
2022-08-03T10:29:25.471Z,101453.00
2022-08-03T10:32:32.856Z,101453.41
2022-08-03T10:35:41.279Z,101454.25
2022-08-03T10:38:52.662Z,101446.88
2022-08-03T10:42:02.472Z,101456.75
2022-08-03T10:45:15.558Z,101455.00
2022-08-03T10:48:22.376Z,101444.44
2022-08-03T10:51:31.998Z,101442.31
2022-08-03T10:55:00.259Z,101447.78
2022-08-03T10:58:11.046Z,101446.31
2022-08-03T11:01:19.092Z,101448.50
2022-08-03T11:04:25.491Z,101446.75
2022-08-03T11:07:30.986Z,101437.31
2022-08-03T11:10:36.531Z,101433.34
2022-08-03T11:13:58.813Z,101428.97
2022-08-03T11:17:15.181Z,101431.16
2022-08-03T11:20:47.486Z,101433.56
2022-08-03T11:24:02.643Z,101436.50
2022-08-03T11:27:19.006Z,101438.50
2022-08-03T11:30:27.835Z,101431.97
2022-08-03T11:33:34.538Z,101429.38
2022-08-03T11:37:12.814Z,101428.69
2022-08-03T11:40:40.402Z,101429.75
2022-08-03T11:43:46.298Z,101429.81
2022-08-03T11:46:51.630Z,101424.03
2022-08-03T11:50:01.971Z,101426.91
2022-08-03T11:53:08.392Z,101422.19
2022-08-03T11:56:13.935Z,101427.97
2022-08-03T11:59:22.037Z,101427.66
2022-08-03T12:02:27.759Z,101432.38
2022-08-03T12:05:51.428Z,101426.28
2022-08-03T12:08:57.499Z,101433.06
2022-08-03T12:12:02.865Z,101435.03
2022-08-03T12:15:08.877Z,101426.19
2022-08-03T12:18:16.200Z,101426.47
2022-08-03T12:21:24.645Z,101425.59
2022-08-03T12:24:41.695Z,101423.28
2022-08-03T12:27:47.030Z,101433.22
2022-08-03T12:30:54.933Z,101430.56
2022-08-03T12:34:03.184Z,101428.03
2022-08-03T12:37:22.045Z,101430.28
2022-08-03T12:40:28.636Z,101424.34
2022-08-03T12:43:36.655Z,101415.91
2022-08-03T12:46:47.989Z,101423.81
2022-08-03T12:49:54.710Z,101432.63
2022-08-03T12:53:02.569Z,101427.09
2022-08-03T12:56:08.052Z,101432.31
2022-08-03T12:59:32.488Z,101421.00
2022-08-03T13:02:40.988Z,101417.00
2022-08-03T13:05:51.598Z,101419.28
2022-08-03T13:09:06.327Z,101420.91
2022-08-03T13:12:12.867Z,101406.50
2022-08-03T13:15:18.611Z,101411.75
2022-08-03T13:18:23.729Z,101409.19
2022-08-03T13:21:28.589Z,101410.47
2022-08-03T13:24:35.358Z,101412.34
2022-08-03T13:28:04.930Z,101416.66
2022-08-03T13:31:07.526Z,101415.78
2022-08-03T13:34:12.421Z,101412.09
2022-08-03T13:37:17.927Z,101411.72
2022-08-03T13:40:30.326Z,101416.94
2022-08-03T13:43:35.708Z,101414.41
2022-08-03T13:46:41.311Z,101412.88
2022-08-03T13:49:59.610Z,101412.13
2022-08-03T13:53:06.961Z,101407.56
2022-08-03T13:56:13.571Z,101416.16
2022-08-03T13:59:18.540Z,101408.44
2022-08-03T14:02:24.189Z,101412.06
2022-08-03T14:05:32.231Z,101407.31
2022-08-03T14:08:37.600Z,101404.91
2022-08-03T14:12:06.946Z,101407.97
2022-08-03T14:15:12.994Z,101400.09
2022-08-03T14:18:27.688Z,101395.72
2022-08-03T14:21:35.494Z,101393.59
2022-08-03T14:24:40.934Z,101386.31
2022-08-03T14:27:49.075Z,101384.00
2022-08-03T14:30:55.808Z,101390.94
2022-08-03T14:34:01.028Z,101371.09
2022-08-03T14:37:06.234Z,101384.31
2022-08-03T14:40:11.989Z,101372.75
2022-08-03T14:43:20.311Z,101373.38
2022-08-03T14:46:25.752Z,101367.28
2022-08-03T14:50:31.187Z,101366.31
2022-08-03T14:52:58.498Z,101369.69
2022-08-03T14:56:07.960Z,101361.03
2022-08-03T14:59:17.001Z,101362.47
2022-08-03T15:02:23.760Z,101373.59
2022-08-03T15:05:29.571Z,101366.69
2022-08-03T15:08:35.094Z,101361.03
2022-08-03T15:11:40.513Z,101353.81
2022-08-03T15:14:47.540Z,101351.34
2022-08-03T15:18:00.030Z,101356.31
2022-08-03T15:21:07.564Z,101344.09
2022-08-03T15:24:33.009Z,101345.38
2022-08-03T15:28:03.305Z,101345.72
2022-08-03T15:31:05.591Z,101342.06
2022-08-03T15:34:12.031Z,101346.56
2022-08-03T15:37:17.549Z,101352.84
2022-08-03T15:40:23.163Z,101330.97
2022-08-03T15:43:28.980Z,101327.13
2022-08-03T15:46:35.730Z,101332.03
2022-08-03T15:49:40.712Z,101331.31
2022-08-03T15:52:45.691Z,101325.88
2022-08-03T15:55:50.630Z,101327.09
2022-08-03T15:59:09.945Z,101313.59
2022-08-03T16:02:19.931Z,101319.84
2022-08-03T16:05:25.638Z,101318.19
2022-08-03T16:08:31.675Z,101312.75
2022-08-03T16:11:37.406Z,101310.78
2022-08-03T16:14:52.857Z,101311.72
2022-08-03T16:17:59.724Z,101307.00
2022-08-03T16:21:05.084Z,101307.44
2022-08-03T16:24:17.357Z,101298.19
2022-08-03T16:27:56.663Z,101306.94
2022-08-03T16:30:51.639Z,101294.47
2022-08-03T16:33:58.788Z,101299.75
2022-08-03T16:37:35.338Z,101296.09
2022-08-03T16:40:31.069Z,101303.53
2022-08-03T16:43:36.299Z,101297.69
2022-08-03T16:46:42.890Z,101289.38
2022-08-03T16:49:55.432Z,101299.47
2022-08-03T16:53:03.483Z,101289.13
2022-08-03T16:56:10.737Z,101298.28
2022-08-03T16:59:16.249Z,101297.38
2022-08-03T17:02:26.167Z,101294.91
2022-08-03T17:05:47.107Z,101292.88
2022-08-03T17:08:55.476Z,101292.53
2022-08-03T17:12:01.169Z,101299.09
2022-08-03T17:15:10.668Z,101297.72
2022-08-03T17:18:18.437Z,101290.03
2022-08-03T17:21:33.810Z,101292.72
2022-08-03T17:24:47.976Z,101298.66
2022-08-03T17:28:49.099Z,101299.31
2022-08-03T17:31:23.581Z,101297.44
2022-08-03T17:34:38.133Z,101296.75
2022-08-03T17:37:57.593Z,101297.16
2022-08-03T17:41:10.972Z,101297.00
2022-08-03T17:44:31.144Z,101297.44
2022-08-03T17:47:43.646Z,101304.84
2022-08-03T17:50:54.825Z,101297.19
2022-08-03T17:54:18.103Z,101300.59
2022-08-03T17:58:02.154Z,101310.03
2022-08-03T18:02:02.014Z,101305.84
2022-08-03T18:05:03.093Z,101308.44
2022-08-03T18:08:26.840Z,101302.50
2022-08-03T18:11:38.839Z,101307.28
2022-08-03T18:14:57.571Z,101301.47
2022-08-03T18:18:10.861Z,101311.06
2022-08-03T18:21:17.481Z,101301.47
2022-08-03T18:24:25.457Z,101296.13
2022-08-03T18:27:42.525Z,101292.56
2022-08-03T18:34:33.032Z,101296.88
2022-08-03T18:37:52.180Z,101306.09
2022-08-03T18:40:57.692Z,101301.25
2022-08-03T18:44:08.066Z,101298.16
2022-08-03T18:47:28.041Z,101300.13
2022-08-03T18:50:58.505Z,101291.97
2022-08-03T18:54:11.238Z,101295.28
2022-08-03T18:57:42.638Z,101295.81
2022-08-03T19:00:59.494Z,101301.31
2022-08-03T19:04:10.268Z,101298.81
2022-08-03T19:07:22.215Z,101296.31
2022-08-03T19:10:35.231Z,101302.06
2022-08-03T19:13:50.282Z,101313.53
2022-08-03T19:17:06.224Z,101310.34
2022-08-03T19:20:12.313Z,101313.31
2022-08-03T19:23:24.014Z,101320.88
2022-08-03T19:26:31.039Z,101327.44
2022-08-03T19:29:59.778Z,101326.41
2022-08-03T19:33:09.660Z,101327.81
2022-08-03T19:36:16.018Z,101329.00
2022-08-03T19:39:24.059Z,101329.38
2022-08-03T19:42:35.285Z,101336.06
2022-08-03T19:46:05.305Z,101332.22
2022-08-03T19:49:16.251Z,101335.03
2022-08-03T19:52:24.368Z,101330.59
2022-08-03T19:55:48.871Z,101326.47
2022-08-03T19:58:56.450Z,101328.13
2022-08-03T20:02:06.098Z,101325.38
2022-08-03T20:05:15.273Z,101326.50
2022-08-03T20:08:23.089Z,101329.53
2022-08-03T20:11:29.048Z,101315.09
2022-08-03T20:14:34.586Z,101323.16
2022-08-03T20:17:54.670Z,101317.91
2022-08-03T20:21:14.994Z,101315.56
2022-08-03T20:24:28.139Z,101317.72
2022-08-03T20:28:06.668Z,101317.97
2022-08-03T20:31:05.324Z,101309.34
2022-08-03T20:34:11.702Z,101308.00
2022-08-03T20:37:23.988Z,101305.75
2022-08-03T20:40:33.760Z,101310.75
2022-08-03T20:43:39.565Z,101313.78
2022-08-03T20:46:53.470Z,101313.19
2022-08-03T20:50:07.578Z,101313.16
2022-08-03T20:53:15.031Z,101310.88
2022-08-03T20:56:40.381Z,101308.97
2022-08-03T20:59:55.007Z,101311.44
2022-08-03T21:03:03.937Z,101317.78
2022-08-03T21:06:15.342Z,101317.19
2022-08-03T21:09:33.453Z,101311.31
2022-08-03T21:12:45.560Z,101304.38
2022-08-03T21:12:58.149Z,101296.88
2022-08-03T21:16:07.017Z,101306.59
2022-08-03T21:19:19.365Z,101292.16
2022-08-03T21:22:30.110Z,101289.63
2022-08-03T21:25:40.424Z,101286.78
2022-08-03T21:28:50.196Z,101286.22
2022-08-03T21:31:57.805Z,101285.66
2022-08-03T21:35:03.484Z,101287.03
2022-08-03T21:38:21.013Z,101283.59
2022-08-03T21:41:38.293Z,101283.81
2022-08-03T21:44:43.554Z,101285.44
2022-08-03T21:47:49.434Z,101277.13
2022-08-03T21:50:55.362Z,101274.88
2022-08-03T21:54:04.639Z,101270.13
2022-08-03T21:57:15.167Z,101279.75
2022-08-03T22:00:23.231Z,101268.66
2022-08-03T22:03:29.374Z,101277.41
2022-08-03T22:06:34.820Z,101278.75
2022-08-03T22:09:40.054Z,101274.59
2022-08-03T22:12:57.332Z,101278.16
2022-08-03T22:16:02.943Z,101275.63
2022-08-03T22:19:08.327Z,101277.00
2022-08-03T22:22:14.522Z,101267.59
2022-08-03T22:25:22.607Z,101274.97
2022-08-03T22:28:31.400Z,101273.47
2022-08-03T22:31:58.222Z,101260.94
2022-08-03T22:35:07.336Z,101270.25
2022-08-03T22:41:19.527Z,101270.22
2022-08-03T22:44:26.573Z,101268.28
2022-08-03T22:47:35.472Z,101271.56
2022-08-03T22:50:42.132Z,101273.34
2022-08-03T22:53:47.359Z,101269.16
2022-08-03T22:56:54.073Z,101263.72
2022-08-03T23:00:00.884Z,101260.88
2022-08-03T23:03:07.354Z,101265.25
2022-08-03T23:06:13.031Z,101261.59
2022-08-03T23:09:22.326Z,101255.50
2022-08-03T23:12:29.532Z,101259.09
2022-08-03T23:15:36.890Z,101267.31
2022-08-03T23:18:43.470Z,101252.38
2022-08-03T23:22:00.046Z,101256.66
2022-08-03T23:25:09.382Z,101255.84
2022-08-03T23:28:16.596Z,101253.25
2022-08-03T23:31:24.175Z,101257.81
2022-08-03T23:34:48.921Z,101250.28
2022-08-03T23:38:05.284Z,101259.06
2022-08-03T23:41:22.044Z,101259.66
2022-08-03T23:44:30.639Z,101252.97
2022-08-03T23:47:46.867Z,101261.50
2022-08-03T23:50:58.830Z,101255.13
2022-08-03T23:54:10.851Z,101256.31
2022-08-03T23:57:24.168Z,101256.03
